McCormick, South Carolina
Current Conditions -  °F | °C
As of 8:56 AM on Friday 19 Dec 2014 (Local Time) from KGRD Reporting Station
Clear Clear  
Wind Chill: 39°   Ceiling: Unl
Heat Index: 42°   Visibility: 10mi
Dew Point: 32°   Wind: 5mph
Humidity: 67%   Direction: 10°N
Pressure: 30.17"   Gusts: NA
Location:  33.91°N, 82.29°W
Report Text: KGRD 191356Z AUTO 01004KT 10SM CLR 06/00 A3017 RMK AO2 SLP218 T00560000
Loading
Personal Weather Stations






























Interactive Weather Map New forecast layout! Learn more

10-Day Weather Forecast

Advertisements
Track Severe Weather on mobile